Terminal Aerodrome Forecast
Issued by NWS Cleveland, OH

Home | Current Version | Previous Version | Graphics & Text | Print | Product List | Glossary On
Versions: 1 2 3 4 5 6 7 8 9 10 11 12 13 14 15 16 17 18
559
FTUS41 KCLE 191931 AAA
TAFCAK
TAF AMD
KCAK 191931Z 1920/2018 35008G16KT P6SM -SHRA VCTS SCT018 BKN035CB
     FM192100 03007KT P6SM BKN035
     FM200100 05006KT P6SM -SHRA BKN035 OVC100
     FM200500 06007KT P6SM BKN025
     FM200800 07006KT 5SM BR BKN015
     FM201400 06008KT P6SM BKN020=

USA.gov is the U.S. government's official web portal to all federal, state and local government web resources and services.